FYWH

Hosea Kutako International Airport

Windhoek, Namibia
METAR FYWH 190600Z 17012KT CAVOK 25/07 Q1020 NOSIG
Observed Flight Rules
Jan-19 @ 06:00 UTC (2 hours ago) Visual Flight Rules
Wind Visibility Clouds
170° at 12 knots 10,000+ meters
  • Clear skies
Temperatures Readings
Current 25°C / 77°F
Dewpoint 7°C / 45°F
Humidity 32%
Altimeter 30.12" Hg
Pressure 1020 hPa
Elevation 1700
METAR FYWH 190600Z 17012KT CAVOK 25/07 Q1020 NOSIG
Observed Flight Rules
Jan-19 @ 06:00 UTC
(2 hours ago)
VFR
Wind Visibility
170° at 12 knots 10,000+ meters
Clouds
  • Clear skies
Temperature Dewpoint
25°C / 77°F 7°C / 45°F
Humidity Altimeter Pressure
32% 30.12" Hg 1020 hPa